createdAt,value
2023-04-17T00:00:25.269Z,7.32
2023-04-17T00:03:01.720Z,7.07
2023-04-17T00:05:35.377Z,6.40
2023-04-17T00:08:08.957Z,6.78
2023-04-17T00:10:42.472Z,7.47
2023-04-17T00:13:15.919Z,7.15
2023-04-17T00:15:49.385Z,7.35
2023-04-17T00:18:24.305Z,8.73
2023-04-17T00:20:57.792Z,9.63
2023-04-17T00:23:31.293Z,8.95
2023-04-17T00:26:04.796Z,8.13
2023-04-17T00:28:38.252Z,7.68
2023-04-17T00:31:12.006Z,8.88
2023-04-17T00:33:47.311Z,7.47
2023-04-17T00:36:20.800Z,9.48
2023-04-17T00:38:54.307Z,7.88
2023-04-17T00:41:27.768Z,7.75
2023-04-17T00:44:01.245Z,7.03
2023-04-17T00:46:34.774Z,6.78
2023-04-17T00:49:10.282Z,8.90
2023-04-17T00:51:43.972Z,7.55
2023-04-17T00:54:19.166Z,6.90
2023-04-17T00:56:53.791Z,6.80
2023-04-17T00:59:29.333Z,6.38
2023-04-17T01:02:02.939Z,6.68
2023-04-17T01:04:37.871Z,7.13
2023-04-17T01:07:11.557Z,6.88
2023-04-17T01:09:45.314Z,6.38
2023-04-17T01:12:20.826Z,8.82
2023-04-17T01:14:56.068Z,19.15
2023-04-17T01:17:29.592Z,11.05
2023-04-17T01:20:07.917Z,8.15
2023-04-17T01:22:41.385Z,7.10
2023-04-17T01:25:16.338Z,5.60
2023-04-17T01:27:49.998Z,5.15
2023-04-17T01:30:23.800Z,4.68
2023-04-17T01:33:17.515Z,8.45
2023-04-17T01:35:51.132Z,6.40
2023-04-17T01:38:24.613Z,6.47
2023-04-17T01:40:59.491Z,5.15
2023-04-17T01:43:32.936Z,5.65
2023-04-17T01:46:06.642Z,5.07
2023-04-17T01:48:40.242Z,5.40
2023-04-17T01:51:13.731Z,5.43
2023-04-17T01:53:47.226Z,4.68
2023-04-17T01:56:22.061Z,5.10
2023-04-17T01:58:55.602Z,5.15
2023-04-17T02:01:29.083Z,5.03
2023-04-17T02:04:02.728Z,4.90
2023-04-17T02:06:36.647Z,3.75
2023-04-17T02:09:10.501Z,4.95
2023-04-17T02:11:47.067Z,5.93
2023-04-17T02:14:20.629Z,5.28
2023-04-17T02:16:54.123Z,4.50
2023-04-17T02:19:27.596Z,4.30
2023-04-17T02:22:01.129Z,4.80
2023-04-17T02:24:34.594Z,5.50
2023-04-17T02:27:09.453Z,5.28
2023-04-17T02:29:43.044Z,5.40
2023-04-17T02:32:16.975Z,4.45
2023-04-17T02:34:51.430Z,3.72
2023-04-17T02:37:25.048Z,6.50
2023-04-17T02:40:00.342Z,4.55
2023-04-17T02:42:35.236Z,4.93
2023-04-17T02:45:11.402Z,4.00
2023-04-17T02:47:46.373Z,3.70
2023-04-17T02:50:20.288Z,4.05
2023-04-17T02:53:16.570Z,3.25
2023-04-17T02:55:50.126Z,3.35
2023-04-17T02:58:28.054Z,4.18
2023-04-17T03:01:03.128Z,4.18
2023-04-17T03:03:42.637Z,4.43
2023-04-17T03:06:19.129Z,4.50
2023-04-17T03:08:52.610Z,4.43
2023-04-17T03:11:26.243Z,3.90
2023-04-17T03:14:01.126Z,3.40
2023-04-17T03:16:34.829Z,4.05
2023-04-17T03:19:09.837Z,4.43
2023-04-17T03:21:43.687Z,3.90
2023-04-17T03:24:17.450Z,4.70
2023-04-17T03:26:50.939Z,3.40
2023-04-17T03:29:28.202Z,4.40
2023-04-17T03:32:01.796Z,5.10
2023-04-17T03:34:35.785Z,3.95
2023-04-17T03:37:09.436Z,4.05
2023-04-17T03:39:43.148Z,4.60
2023-04-17T03:42:16.676Z,4.43
2023-04-17T03:44:52.346Z,4.00
2023-04-17T03:47:26.179Z,3.95
2023-04-17T03:50:00.415Z,4.53
2023-04-17T03:52:38.680Z,4.47
2023-04-17T03:55:12.699Z,3.20
2023-04-17T03:57:48.575Z,4.47
2023-04-17T04:00:23.774Z,4.38
2023-04-17T04:03:02.156Z,4.40
2023-04-17T04:05:43.261Z,4.75
2023-04-17T04:08:17.826Z,4.35
2023-04-17T04:10:55.946Z,4.35
2023-04-17T04:13:39.396Z,4.05
2023-04-17T04:16:15.134Z,3.88
2023-04-17T04:18:49.020Z,5.00
2023-04-17T04:21:24.696Z,4.38
2023-04-17T04:23:58.251Z,4.20
2023-04-17T04:26:32.152Z,5.03
2023-04-17T04:29:06.065Z,4.53
2023-04-17T04:31:55.645Z,4.70
2023-04-17T04:34:31.959Z,4.88
2023-04-17T04:37:05.416Z,4.32
2023-04-17T04:39:44.659Z,4.03
2023-04-17T04:42:22.437Z,5.05
2023-04-17T04:45:13.651Z,3.45
2023-04-17T04:47:50.121Z,4.47
2023-04-17T04:50:23.693Z,4.93
2023-04-17T04:52:57.273Z,5.90
2023-04-17T04:55:47.958Z,4.80
2023-04-17T04:58:21.754Z,4.43
2023-04-17T05:00:56.234Z,4.72
2023-04-17T05:03:38.469Z,5.35
2023-04-17T05:06:13.830Z,5.72
2023-04-17T05:08:52.493Z,4.88
2023-04-17T05:11:26.154Z,4.65
2023-04-17T05:13:59.854Z,6.75
2023-04-17T05:16:37.483Z,5.57
2023-04-17T05:19:12.830Z,5.97
2023-04-17T05:22:12.544Z,7.07
2023-04-17T05:24:59.209Z,8.23
2023-04-17T05:27:33.453Z,9.48
2023-04-17T05:30:08.690Z,8.27
2023-04-17T05:32:42.576Z,11.00
2023-04-17T05:35:32.511Z,9.90
2023-04-17T05:38:08.063Z,8.15
2023-04-17T05:40:41.984Z,8.32
2023-04-17T05:43:15.489Z,8.40
2023-04-17T05:45:49.245Z,8.65
2023-04-17T05:48:22.776Z,8.63
2023-04-17T05:50:59.362Z,7.80
2023-04-17T05:53:33.312Z,9.13
2023-04-17T05:56:07.513Z,7.63
2023-04-17T05:58:42.326Z,8.90
2023-04-17T06:01:18.099Z,8.40
2023-04-17T06:03:51.804Z,9.68
2023-04-17T06:06:31.495Z,8.23
2023-04-17T06:09:07.044Z,8.10
2023-04-17T06:11:40.491Z,9.00
2023-04-17T06:14:14.185Z,9.05
2023-04-17T06:16:47.714Z,8.68
2023-04-17T06:19:24.224Z,10.93
2023-04-17T06:21:59.102Z,9.52
2023-04-17T06:24:32.972Z,9.60
2023-04-17T06:27:06.488Z,10.10
2023-04-17T06:29:39.968Z,9.13
2023-04-17T06:32:13.492Z,9.82
2023-04-17T06:37:31.510Z,9.48
2023-04-17T06:40:05.661Z,8.88
2023-04-17T06:42:39.363Z,8.55
2023-04-17T06:45:17.528Z,8.73
2023-04-17T06:47:51.126Z,8.30
2023-04-17T06:50:24.789Z,9.80
2023-04-17T06:52:59.674Z,9.07
2023-04-17T06:55:33.192Z,7.85
2023-04-17T06:58:08.501Z,7.53
2023-04-17T07:00:41.999Z,8.38
2023-04-17T07:03:16.598Z,7.13
2023-04-17T07:05:50.708Z,6.45
2023-04-17T07:08:25.595Z,6.05
2023-04-17T07:10:59.096Z,8.60
2023-04-17T07:13:33.310Z,7.05
2023-04-17T07:16:07.432Z,6.78
2023-04-17T07:18:40.902Z,6.82
2023-04-17T07:21:14.351Z,7.03
2023-04-17T07:23:49.203Z,7.10
2023-04-17T07:26:22.815Z,7.22
2023-04-17T07:28:56.249Z,5.90
2023-04-17T07:31:29.827Z,5.28
2023-04-17T07:34:04.485Z,6.05
2023-04-17T07:36:37.956Z,5.07
2023-04-17T07:39:13.075Z,6.20
2023-04-17T07:41:46.653Z,4.35
2023-04-17T07:44:20.137Z,5.55
2023-04-17T07:46:53.690Z,5.65
2023-04-17T07:49:27.280Z,5.68
2023-04-17T07:52:00.976Z,5.40
2023-04-17T07:54:35.982Z,5.35
2023-04-17T07:57:09.618Z,5.00
2023-04-17T07:59:43.388Z,4.93
2023-04-17T08:02:17.102Z,4.28
2023-04-17T08:04:52.340Z,3.17
2023-04-17T08:07:26.098Z,3.75
2023-04-17T08:10:01.032Z,4.05
2023-04-17T08:12:34.614Z,3.92
2023-04-17T08:15:09.496Z,3.30
2023-04-17T08:17:43.009Z,3.83
2023-04-17T08:20:17.962Z,3.08
2023-04-17T08:22:52.019Z,4.35
2023-04-17T08:25:27.055Z,4.05
2023-04-17T08:28:00.557Z,3.30
2023-04-17T08:30:34.090Z,3.25
2023-04-17T08:33:07.677Z,2.78
2023-04-17T08:35:41.277Z,2.58
2023-04-17T08:38:15.382Z,1.88
2023-04-17T08:40:52.726Z,1.90
2023-04-17T08:43:29.766Z,2.10
2023-04-17T08:46:03.765Z,1.55
2023-04-17T08:48:37.208Z,1.90
2023-04-17T08:51:10.846Z,1.73
2023-04-17T08:53:44.332Z,1.80
2023-04-17T08:56:19.420Z,2.53
2023-04-17T08:58:53.097Z,2.85
2023-04-17T09:01:26.798Z,2.40
2023-04-17T09:04:00.605Z,1.77
2023-04-17T09:06:54.331Z,2.45
2023-04-17T09:09:47.056Z,2.72
2023-04-17T09:12:23.292Z,1.70
2023-04-17T09:14:56.827Z,1.95
2023-04-17T09:17:37.937Z,1.80
2023-04-17T09:20:12.960Z,2.65
2023-04-17T09:22:46.813Z,1.80
2023-04-17T09:25:23.290Z,2.00
2023-04-17T09:28:11.675Z,2.45
2023-04-17T09:30:45.412Z,1.70
2023-04-17T09:33:18.921Z,1.60
2023-04-17T09:35:52.501Z,1.55
2023-04-17T09:38:38.323Z,1.45
2023-04-17T09:41:24.032Z,1.17
2023-04-17T09:44:01.931Z,1.63
2023-04-17T09:46:38.175Z,1.80
2023-04-17T09:49:18.903Z,1.80
2023-04-17T09:51:53.642Z,1.17
2023-04-17T09:54:31.354Z,1.55
2023-04-17T09:57:08.287Z,1.65
2023-04-17T09:59:45.386Z,1.70
2023-04-17T10:02:22.587Z,2.08
2023-04-17T10:04:57.048Z,1.83
2023-04-17T10:07:31.534Z,1.50
2023-04-17T10:10:09.342Z,2.00
2023-04-17T10:12:43.385Z,2.30
2023-04-17T10:15:19.668Z,1.70
2023-04-17T10:17:56.426Z,1.60
2023-04-17T10:20:38.186Z,1.70
2023-04-17T10:23:31.342Z,2.03
2023-04-17T10:26:38.940Z,2.28
2023-04-17T10:29:12.860Z,1.73
2023-04-17T10:32:24.329Z,1.70
2023-04-17T10:35:01.448Z,1.88
2023-04-17T10:38:04.882Z,1.67
2023-04-17T10:40:39.866Z,3.05
2023-04-17T10:43:15.000Z,1.83
2023-04-17T10:45:57.105Z,1.40
2023-04-17T10:48:34.847Z,1.50
2023-04-17T10:51:44.638Z,1.52
2023-04-17T10:54:18.204Z,1.65
2023-04-17T10:56:55.919Z,2.10
2023-04-17T10:59:30.287Z,2.45
2023-04-17T11:02:06.611Z,2.40
2023-04-17T11:04:40.221Z,1.17
2023-04-17T11:07:17.662Z,0.85
2023-04-17T11:09:53.502Z,1.48
2023-04-17T11:12:27.165Z,0.85
2023-04-17T11:15:04.036Z,0.90
2023-04-17T11:17:41.693Z,1.05
2023-04-17T11:20:19.170Z,1.45
2023-04-17T11:22:54.535Z,1.13
2023-04-17T11:25:31.421Z,0.95
2023-04-17T11:28:07.492Z,1.23
2023-04-17T11:30:44.771Z,1.13
2023-04-17T11:33:18.751Z,0.82
2023-04-17T11:35:53.034Z,1.20
2023-04-17T11:38:28.461Z,1.10
2023-04-17T11:41:04.353Z,1.13
2023-04-17T11:43:40.137Z,1.05
2023-04-17T11:46:13.780Z,2.42
2023-04-17T11:48:50.494Z,1.65
2023-04-17T11:51:24.067Z,1.30
2023-04-17T11:53:59.473Z,0.93
2023-04-17T11:56:33.045Z,1.05
2023-04-17T11:59:06.590Z,1.33
2023-04-17T12:01:53.416Z,1.30
2023-04-17T12:04:29.008Z,1.30
2023-04-17T12:07:02.974Z,0.85
2023-04-17T12:09:38.055Z,1.25
2023-04-17T12:12:11.509Z,1.17
2023-04-17T12:14:44.996Z,0.90
2023-04-17T12:17:18.620Z,0.60
2023-04-17T12:19:52.527Z,0.90
2023-04-17T12:22:25.959Z,1.75
2023-04-17T12:25:00.828Z,1.02
2023-04-17T12:27:37.536Z,1.50
2023-04-17T12:30:12.512Z,1.38
2023-04-17T12:32:48.897Z,1.20
2023-04-17T12:35:23.502Z,1.33
2023-04-17T12:37:56.966Z,1.10
2023-04-17T12:40:32.914Z,1.50
2023-04-17T12:43:08.456Z,1.98
2023-04-17T12:45:45.745Z,1.48
2023-04-17T12:48:19.390Z,2.22
2023-04-17T12:50:54.339Z,1.40
2023-04-17T12:53:27.950Z,3.20
2023-04-17T12:56:03.018Z,2.13
2023-04-17T12:58:36.597Z,2.60
2023-04-17T13:01:10.206Z,2.60
2023-04-17T13:03:43.934Z,2.58
2023-04-17T13:06:17.758Z,2.50
2023-04-17T13:08:51.335Z,1.95
2023-04-17T13:11:26.455Z,2.30
2023-04-17T13:14:00.033Z,3.25
2023-04-17T13:16:33.583Z,3.53
2023-04-17T13:19:07.036Z,1.83
2023-04-17T13:21:40.501Z,2.10
2023-04-17T13:24:14.904Z,2.50
2023-04-17T13:26:49.847Z,1.58
2023-04-17T13:29:23.437Z,2.47
2023-04-17T13:31:57.204Z,2.85
2023-04-17T13:34:30.697Z,3.55
2023-04-17T13:37:04.255Z,4.70
2023-04-17T13:39:37.832Z,4.10
2023-04-17T13:42:16.304Z,1.95
2023-04-17T13:44:50.587Z,3.05
2023-04-17T13:47:24.074Z,2.22
2023-04-17T13:49:57.563Z,1.88
2023-04-17T13:52:31.263Z,0.90
2023-04-17T13:55:07.272Z,1.83
2023-04-17T13:57:42.281Z,2.17
2023-04-17T14:00:18.389Z,2.97
2023-04-17T14:02:52.130Z,2.47
2023-04-17T14:05:25.854Z,2.63
2023-04-17T14:07:59.648Z,1.55
2023-04-17T14:10:33.223Z,2.58
2023-04-17T14:13:08.536Z,3.60
2023-04-17T14:15:42.157Z,2.88
2023-04-17T14:18:15.803Z,2.47
2023-04-17T14:20:49.647Z,2.05
2023-04-17T14:23:23.226Z,1.80
2023-04-17T14:25:56.744Z,1.85
2023-04-17T14:28:31.611Z,2.05
2023-04-17T14:31:05.575Z,1.58
2023-04-17T14:33:39.062Z,2.35
2023-04-17T14:36:12.606Z,5.43
2023-04-17T14:38:49.922Z,2.90
2023-04-17T14:41:23.715Z,1.70
2023-04-17T14:43:58.661Z,1.15
2023-04-17T14:46:32.341Z,1.33
2023-04-17T14:49:06.127Z,1.13
2023-04-17T14:51:39.668Z,1.50
2023-04-17T14:54:13.244Z,1.48
2023-04-17T14:56:46.918Z,1.67
2023-04-17T14:59:21.972Z,1.67
2023-04-17T15:01:55.806Z,1.25
2023-04-17T15:04:29.699Z,1.67
2023-04-17T15:07:04.889Z,1.40
2023-04-17T15:09:38.442Z,1.45
2023-04-17T15:12:12.202Z,0.70
2023-04-17T15:14:47.076Z,1.10
2023-04-17T15:17:21.027Z,1.20
2023-04-17T15:19:57.483Z,0.93
2023-04-17T15:22:30.999Z,1.33
2023-04-17T15:25:04.710Z,1.30
2023-04-17T15:27:38.414Z,1.40
2023-04-17T15:30:14.728Z,1.60
2023-04-17T15:32:48.484Z,1.83
2023-04-17T15:35:22.176Z,2.15
2023-04-17T15:37:55.692Z,2.03
2023-04-17T15:40:29.642Z,2.38
2023-04-17T15:43:03.292Z,3.00
2023-04-17T15:45:38.309Z,2.90
2023-04-17T15:48:11.936Z,2.60
2023-04-17T15:50:45.468Z,2.85
2023-04-17T15:53:19.133Z,3.20
2023-04-17T15:55:53.878Z,2.55
2023-04-17T15:58:27.472Z,3.03
2023-04-17T16:01:02.402Z,2.55
2023-04-17T16:03:37.421Z,4.20
2023-04-17T16:06:11.380Z,3.83
2023-04-17T16:08:45.194Z,5.07
2023-04-17T16:11:18.798Z,4.03
2023-04-17T16:13:52.394Z,3.53
2023-04-17T16:16:29.407Z,3.53
2023-04-17T16:19:03.131Z,3.30
2023-04-17T16:21:36.995Z,3.35
2023-04-17T16:24:10.538Z,3.40
2023-04-17T16:26:44.107Z,3.60
2023-04-17T16:29:17.719Z,4.63
2023-04-17T16:31:52.953Z,4.70
2023-04-17T16:34:26.542Z,3.78
2023-04-17T16:37:00.208Z,3.72
2023-04-17T16:39:33.759Z,2.33
2023-04-17T16:42:07.411Z,3.50
2023-04-17T16:44:40.941Z,3.20
2023-04-17T16:47:16.311Z,3.92
2023-04-17T16:49:49.889Z,1.80
2023-04-17T16:52:23.375Z,2.30
2023-04-17T16:54:56.909Z,2.35
2023-04-17T16:57:31.154Z,2.88
2023-04-17T17:00:05.160Z,2.83
2023-04-17T17:02:40.514Z,3.63
2023-04-17T17:05:15.829Z,3.97
2023-04-17T17:07:49.855Z,4.88
2023-04-17T17:10:23.346Z,4.78
2023-04-17T17:12:56.817Z,4.68
2023-04-17T17:15:30.485Z,5.70
2023-04-17T17:18:05.637Z,3.92
2023-04-17T17:20:39.170Z,4.10
2023-04-17T17:23:12.724Z,4.63
2023-04-17T17:25:46.214Z,5.43
2023-04-17T17:28:19.808Z,5.53
2023-04-17T17:31:00.603Z,5.18
2023-04-17T17:33:36.500Z,6.43
2023-04-17T17:36:11.665Z,5.97
2023-04-17T17:38:45.357Z,6.65
2023-04-17T17:41:19.161Z,5.90
2023-04-17T17:43:52.972Z,6.78
2023-04-17T17:46:27.835Z,7.03
2023-04-17T17:49:02.797Z,6.72
2023-04-17T17:51:36.307Z,8.10
2023-04-17T17:54:09.866Z,6.70
2023-04-17T17:56:43.367Z,7.32
2023-04-17T17:59:16.988Z,9.05
2023-04-17T18:01:50.612Z,7.65
2023-04-17T18:04:25.778Z,8.10
2023-04-17T18:06:59.500Z,9.52
2023-04-17T18:09:33.062Z,9.45
2023-04-17T18:12:07.097Z,10.95
2023-04-17T18:14:40.621Z,10.35
2023-04-17T18:17:14.160Z,10.73
2023-04-17T18:19:49.079Z,8.27
2023-04-17T18:22:22.645Z,12.48
2023-04-17T18:24:56.785Z,11.45
2023-04-17T18:27:30.934Z,9.93
2023-04-17T18:30:05.312Z,8.15
2023-04-17T18:32:38.979Z,8.93
2023-04-17T18:35:13.927Z,8.98
2023-04-17T18:37:47.442Z,9.15
2023-04-17T18:40:21.121Z,10.23
2023-04-17T18:42:54.631Z,8.55
2023-04-17T18:45:28.121Z,11.45
2023-04-17T18:48:01.664Z,10.32
2023-04-17T18:50:38.383Z,7.63
2023-04-17T18:53:11.933Z,6.50
2023-04-17T18:55:45.413Z,5.63
2023-04-17T18:58:18.908Z,6.05
2023-04-17T19:00:52.518Z,7.15
2023-04-17T19:03:26.637Z,4.65
2023-04-17T19:06:01.609Z,5.55
2023-04-17T19:08:35.249Z,4.53
2023-04-17T19:11:08.754Z,5.30
2023-04-17T19:13:42.637Z,3.75
2023-04-17T19:16:16.383Z,4.07
2023-04-17T19:18:50.069Z,4.78
2023-04-17T19:21:25.021Z,3.72
2023-04-17T19:23:58.793Z,6.18
2023-04-17T19:26:32.612Z,4.30
2023-04-17T19:29:06.316Z,5.00
2023-04-17T19:31:40.440Z,5.68
2023-04-17T19:34:14.232Z,6.38
2023-04-17T19:36:49.117Z,4.20
2023-04-17T19:39:22.692Z,3.95
2023-04-17T19:41:56.255Z,4.13
2023-04-17T19:44:29.848Z,4.10
2023-04-17T19:47:04.545Z,4.80
2023-04-17T19:49:38.093Z,3.63
2023-04-17T19:52:14.266Z,3.55
2023-04-17T19:54:47.876Z,4.15
2023-04-17T19:57:21.373Z,3.58
2023-04-17T19:59:54.880Z,3.90
2023-04-17T20:02:28.621Z,4.13
2023-04-17T20:05:02.257Z,4.22
2023-04-17T20:07:37.433Z,4.95
2023-04-17T20:10:11.722Z,4.60
2023-04-17T20:12:45.415Z,4.35
2023-04-17T20:15:21.928Z,4.57
2023-04-17T20:17:55.528Z,5.38
2023-04-17T20:20:29.095Z,4.68
2023-04-17T20:23:04.064Z,6.65
2023-04-17T20:25:37.533Z,6.93
2023-04-17T20:28:11.063Z,6.00
2023-04-17T20:30:44.623Z,6.07
2023-04-17T20:33:18.176Z,6.40
2023-04-17T20:35:51.825Z,5.78
2023-04-17T20:38:26.861Z,4.93
2023-04-17T20:41:00.321Z,5.28
2023-04-17T20:43:34.615Z,4.78
2023-04-17T20:46:08.204Z,5.63
2023-04-17T20:48:41.830Z,4.93
2023-04-17T20:51:15.430Z,5.72
2023-04-17T20:53:50.429Z,5.72
2023-04-17T20:56:24.204Z,4.50
2023-04-17T20:58:57.660Z,5.45
2023-04-17T21:01:31.205Z,5.93
2023-04-17T21:04:04.995Z,4.70
2023-04-17T21:06:38.580Z,4.60
2023-04-17T21:09:14.811Z,4.28
2023-04-17T21:11:48.274Z,5.18
2023-04-17T21:14:21.974Z,4.25
2023-04-17T21:16:58.869Z,3.88
2023-04-17T21:19:32.354Z,4.80
2023-04-17T21:22:07.729Z,4.40
2023-04-17T21:24:42.707Z,4.38
2023-04-17T21:27:16.190Z,4.60
2023-04-17T21:29:49.654Z,5.82
2023-04-17T21:32:23.137Z,5.85
2023-04-17T21:34:56.610Z,6.40
2023-04-17T21:37:30.059Z,5.78
2023-04-17T21:40:05.274Z,7.00
2023-04-17T21:42:39.074Z,7.38
2023-04-17T21:45:13.194Z,4.70
2023-04-17T21:47:46.665Z,5.40
2023-04-17T21:50:20.480Z,6.25
2023-04-17T21:52:53.932Z,7.05
2023-04-17T21:55:28.880Z,5.15
2023-04-17T21:58:02.536Z,6.60
2023-04-17T22:00:36.022Z,5.60
2023-04-17T22:03:09.489Z,6.93
2023-04-17T22:05:42.953Z,5.57
2023-04-17T22:08:17.135Z,5.05
2023-04-17T22:10:53.161Z,5.90
2023-04-17T22:13:26.818Z,6.28
2023-04-17T22:16:00.354Z,7.10
2023-04-17T22:18:33.808Z,7.15
2023-04-17T22:21:07.760Z,6.32
2023-04-17T22:23:41.222Z,5.88
2023-04-17T22:26:16.350Z,5.13
2023-04-17T22:28:49.859Z,6.72
2023-04-17T22:31:23.440Z,6.78
2023-04-17T22:33:57.348Z,6.82
2023-04-17T22:36:31.148Z,8.77
2023-04-17T22:39:04.800Z,8.93
2023-04-17T22:41:39.730Z,11.68
2023-04-17T22:44:13.452Z,10.98
2023-04-17T22:46:47.132Z,9.40
2023-04-17T22:49:20.625Z,8.85
2023-04-17T22:51:54.280Z,7.30
2023-04-17T22:54:27.920Z,8.27
2023-04-17T22:57:03.412Z,5.53
2023-04-17T22:59:36.861Z,4.15
2023-04-17T23:02:10.391Z,3.65
2023-04-17T23:04:43.922Z,2.38
2023-04-17T23:07:17.451Z,2.75
2023-04-17T23:09:50.958Z,3.60
2023-04-17T23:12:25.858Z,2.90
2023-04-17T23:14:59.515Z,2.70
2023-04-17T23:17:33.275Z,3.42
2023-04-17T23:20:07.953Z,2.90
2023-04-17T23:22:41.522Z,2.67
2023-04-17T23:25:15.184Z,2.42
2023-04-17T23:27:50.043Z,2.35
2023-04-17T23:30:23.581Z,2.10
2023-04-17T23:32:57.123Z,2.47
2023-04-17T23:35:30.630Z,2.20
2023-04-17T23:38:04.301Z,2.67
2023-04-17T23:40:37.761Z,2.08
2023-04-17T23:43:12.581Z,2.67
2023-04-17T23:45:46.033Z,3.10
2023-04-17T23:48:19.699Z,3.40
2023-04-17T23:50:53.253Z,2.70
2023-04-17T23:53:26.786Z,2.55
2023-04-17T23:56:00.249Z,3.28
2023-04-17T23:58:35.186Z,3.17
